sensor_id;sensor_type;location;lat;lon;timestamp;pressure;altitude;pressure_sealevel;temperature;humidity
41830;BME280;38614;43.472;23.936;2023-05-23T00:02:05;100012.28;;;14.77;100.00
41830;BME280;38614;43.472;23.936;2023-05-23T00:04:55;99992.00;;;14.66;100.00
41830;BME280;38614;43.472;23.936;2023-05-23T00:07:44;99975.22;;;14.51;100.00
41830;BME280;38614;43.472;23.936;2023-05-23T00:10:32;99987.66;;;14.72;100.00
41830;BME280;38614;43.472;23.936;2023-05-23T00:13:20;100015.13;;;14.84;100.00
41830;BME280;38614;43.472;23.936;2023-05-23T00:16:08;100022.22;;;14.78;100.00
41830;BME280;38614;43.472;23.936;2023-05-23T00:18:56;100012.25;;;14.70;100.00
41830;BME280;38614;43.472;23.936;2023-05-23T00:21:47;100011.84;;;14.68;100.00
41830;BME280;38614;43.472;23.936;2023-05-23T00:24:35;100003.50;;;14.64;100.00
41830;BME280;38614;43.472;23.936;2023-05-23T00:27:22;100010.56;;;14.47;100.00
41830;BME280;38614;43.472;23.936;2023-05-23T00:30:10;100007.28;;;14.35;100.00
41830;BME280;38614;43.472;23.936;2023-05-23T00:32:58;100019.63;;;14.41;100.00
41830;BME280;38614;43.472;23.936;2023-05-23T00:35:47;99996.06;;;14.17;100.00
41830;BME280;38614;43.472;23.936;2023-05-23T00:38:35;100002.38;;;14.14;100.00
41830;BME280;38614;43.472;23.936;2023-05-23T00:41:23;100023.38;;;14.08;100.00
41830;BME280;38614;43.472;23.936;2023-05-23T00:44:13;100013.03;;;14.05;100.00
41830;BME280;38614;43.472;23.936;2023-05-23T00:47:01;100018.25;;;14.13;100.00
41830;BME280;38614;43.472;23.936;2023-05-23T00:49:49;99990.31;;;13.92;100.00
41830;BME280;38614;43.472;23.936;2023-05-23T00:52:37;100026.97;;;14.12;100.00
41830;BME280;38614;43.472;23.936;2023-05-23T00:55:26;99984.75;;;13.88;100.00
41830;BME280;38614;43.472;23.936;2023-05-23T00:58:15;100018.16;;;13.99;100.00
41830;BME280;38614;43.472;23.936;2023-05-23T01:01:04;100003.72;;;13.79;100.00
41830;BME280;38614;43.472;23.936;2023-05-23T01:03:52;100023.97;;;13.83;100.00
41830;BME280;38614;43.472;23.936;2023-05-23T01:06:40;100006.44;;;13.72;100.00
41830;BME280;38614;43.472;23.936;2023-05-23T01:09:28;100023.53;;;13.78;100.00
41830;BME280;38614;43.472;23.936;2023-05-23T01:12:44;100017.56;;;13.76;100.00
41830;BME280;38614;43.472;23.936;2023-05-23T01:21:54;100007.53;;;13.64;100.00
41830;BME280;38614;43.472;23.936;2023-05-23T01:24:57;100004.00;;;13.67;100.00
41830;BME280;38614;43.472;23.936;2023-05-23T01:28:04;100010.78;;;13.69;100.00
41830;BME280;38614;43.472;23.936;2023-05-23T01:30:56;100017.91;;;13.71;100.00
41830;BME280;38614;43.472;23.936;2023-05-23T01:33:45;100015.53;;;13.69;100.00
41830;BME280;38614;43.472;23.936;2023-05-23T01:36:33;99997.13;;;13.54;100.00
41830;BME280;38614;43.472;23.936;2023-05-23T01:39:24;99990.78;;;13.50;100.00
41830;BME280;38614;43.472;23.936;2023-05-23T01:42:12;100011.09;;;13.61;100.00
41830;BME280;38614;43.472;23.936;2023-05-23T01:45:00;100018.66;;;13.67;100.00
41830;BME280;38614;43.472;23.936;2023-05-23T01:47:50;99987.66;;;13.58;100.00
41830;BME280;38614;43.472;23.936;2023-05-23T01:50:39;99985.56;;;13.45;100.00
41830;BME280;38614;43.472;23.936;2023-05-23T01:53:29;100009.50;;;13.60;100.00
41830;BME280;38614;43.472;23.936;2023-05-23T01:56:22;99992.06;;;13.63;100.00
41830;BME280;38614;43.472;23.936;2023-05-23T01:59:11;99970.09;;;13.44;100.00
41830;BME280;38614;43.472;23.936;2023-05-23T02:01:59;99991.50;;;13.43;100.00
41830;BME280;38614;43.472;23.936;2023-05-23T02:04:48;99967.53;;;13.28;100.00
41830;BME280;38614;43.472;23.936;2023-05-23T02:07:37;99998.31;;;13.53;100.00
41830;BME280;38614;43.472;23.936;2023-05-23T02:10:25;100001.16;;;13.60;100.00
41830;BME280;38614;43.472;23.936;2023-05-23T02:13:13;100022.63;;;13.66;100.00
41830;BME280;38614;43.472;23.936;2023-05-23T02:16:01;99974.47;;;13.48;100.00
41830;BME280;38614;43.472;23.936;2023-05-23T02:18:49;100019.13;;;13.73;100.00
41830;BME280;38614;43.472;23.936;2023-05-23T02:21:39;100006.41;;;13.68;100.00
41830;BME280;38614;43.472;23.936;2023-05-23T02:24:27;100026.38;;;13.85;100.00
41830;BME280;38614;43.472;23.936;2023-05-23T02:27:15;99978.19;;;13.66;100.00
41830;BME280;38614;43.472;23.936;2023-05-23T02:30:03;99975.81;;;13.65;100.00
41830;BME280;38614;43.472;23.936;2023-05-23T02:32:51;100025.16;;;13.82;100.00
41830;BME280;38614;43.472;23.936;2023-05-23T02:35:39;99962.09;;;13.38;100.00
41830;BME280;38614;43.472;23.936;2023-05-23T02:38:29;100022.28;;;13.72;100.00
41830;BME280;38614;43.472;23.936;2023-05-23T02:41:17;99989.81;;;13.35;100.00
41830;BME280;38614;43.472;23.936;2023-05-23T02:44:05;100033.91;;;13.84;100.00
41830;BME280;38614;43.472;23.936;2023-05-23T02:46:53;100025.88;;;13.76;100.00
41830;BME280;38614;43.472;23.936;2023-05-23T02:49:41;100011.97;;;13.68;100.00
41830;BME280;38614;43.472;23.936;2023-05-23T02:52:28;100027.13;;;13.82;100.00
41830;BME280;38614;43.472;23.936;2023-05-23T02:55:16;100030.72;;;13.86;100.00
41830;BME280;38614;43.472;23.936;2023-05-23T02:58:07;100029.50;;;13.80;100.00
41830;BME280;38614;43.472;23.936;2023-05-23T03:00:55;100029.53;;;13.83;100.00
41830;BME280;38614;43.472;23.936;2023-05-23T03:03:43;100032.72;;;13.85;100.00
41830;BME280;38614;43.472;23.936;2023-05-23T03:06:31;100020.06;;;13.88;100.00
41830;BME280;38614;43.472;23.936;2023-05-23T03:09:20;100023.97;;;13.83;100.00
41830;BME280;38614;43.472;23.936;2023-05-23T03:12:11;100029.22;;;13.95;100.00
41830;BME280;38614;43.472;23.936;2023-05-23T03:14:58;100024.13;;;14.01;100.00
41830;BME280;38614;43.472;23.936;2023-05-23T03:17:47;100016.19;;;14.03;100.00
41830;BME280;38614;43.472;23.936;2023-05-23T03:20:39;100016.72;;;14.19;100.00
41830;BME280;38614;43.472;23.936;2023-05-23T03:23:27;99997.47;;;13.93;100.00
41830;BME280;38614;43.472;23.936;2023-05-23T03:26:15;100010.59;;;13.96;100.00
41830;BME280;38614;43.472;23.936;2023-05-23T03:29:03;100015.81;;;14.05;100.00
41830;BME280;38614;43.472;23.936;2023-05-23T03:31:50;100011.50;;;14.14;100.00
41830;BME280;38614;43.472;23.936;2023-05-23T03:34:38;100025.44;;;14.21;100.00
41830;BME280;38614;43.472;23.936;2023-05-23T03:37:26;100027.47;;;14.24;100.00
41830;BME280;38614;43.472;23.936;2023-05-23T03:40:14;100020.69;;;14.22;100.00
41830;BME280;38614;43.472;23.936;2023-05-23T03:43:04;100022.00;;;14.35;100.00
41830;BME280;38614;43.472;23.936;2023-05-23T03:45:53;100030.84;;;14.51;100.00
41830;BME280;38614;43.472;23.936;2023-05-23T03:48:41;100015.28;;;14.43;100.00
41830;BME280;38614;43.472;23.936;2023-05-23T03:51:29;100027.66;;;14.49;100.00
41830;BME280;38614;43.472;23.936;2023-05-23T03:54:19;100017.22;;;14.39;100.00
41830;BME280;38614;43.472;23.936;2023-05-23T03:57:06;100025.72;;;14.61;100.00
41830;BME280;38614;43.472;23.936;2023-05-23T03:59:56;100034.44;;;14.59;100.00
41830;BME280;38614;43.472;23.936;2023-05-23T04:02:46;100029.78;;;14.74;100.00
41830;BME280;38614;43.472;23.936;2023-05-23T04:05:37;100013.00;;;14.60;100.00
41830;BME280;38614;43.472;23.936;2023-05-23T04:08:26;100031.00;;;14.83;100.00
41830;BME280;38614;43.472;23.936;2023-05-23T04:11:15;100032.97;;;14.79;100.00
41830;BME280;38614;43.472;23.936;2023-05-23T04:14:04;100027.47;;;14.90;100.00
41830;BME280;38614;43.472;23.936;2023-05-23T04:16:52;100031.03;;;14.87;100.00
41830;BME280;38614;43.472;23.936;2023-05-23T04:19:45;100035.03;;;14.97;100.00
41830;BME280;38614;43.472;23.936;2023-05-23T04:22:33;100048.16;;;14.96;100.00
41830;BME280;38614;43.472;23.936;2023-05-23T04:25:22;100024.38;;;15.17;100.00
41830;BME280;38614;43.472;23.936;2023-05-23T04:28:22;100044.66;;;15.21;100.00
41830;BME280;38614;43.472;23.936;2023-05-23T04:31:11;100034.34;;;15.18;100.00
41830;BME280;38614;43.472;23.936;2023-05-23T04:34:02;100019.19;;;15.11;100.00
41830;BME280;38614;43.472;23.936;2023-05-23T04:36:55;100042.72;;;15.43;100.00
41830;BME280;38614;43.472;23.936;2023-05-23T04:39:44;100055.50;;;15.58;100.00
41830;BME280;38614;43.472;23.936;2023-05-23T04:43:10;100039.25;;;15.63;100.00
41830;BME280;38614;43.472;23.936;2023-05-23T04:46:08;100022.47;;;15.53;100.00
41830;BME280;38614;43.472;23.936;2023-05-23T04:48:59;100060.34;;;15.82;100.00
41830;BME280;38614;43.472;23.936;2023-05-23T04:51:49;100067.91;;;15.96;100.00
41830;BME280;38614;43.472;23.936;2023-05-23T04:54:42;100064.72;;;15.98;100.00
41830;BME280;38614;43.472;23.936;2023-05-23T04:57:31;100063.91;;;16.18;100.00
41830;BME280;38614;43.472;23.936;2023-05-23T05:00:20;100040.84;;;16.11;100.00
41830;BME280;38614;43.472;23.936;2023-05-23T05:03:09;100035.66;;;16.31;100.00
41830;BME280;38614;43.472;23.936;2023-05-23T05:06:04;100016.53;;;16.29;100.00
41830;BME280;38614;43.472;23.936;2023-05-23T05:08:54;100047.16;;;16.58;100.00
41830;BME280;38614;43.472;23.936;2023-05-23T05:11:45;100003.34;;;16.51;100.00
41830;BME280;38614;43.472;23.936;2023-05-23T05:14:34;100037.09;;;16.92;100.00
41830;BME280;38614;43.472;23.936;2023-05-23T05:17:24;100050.94;;;17.24;100.00
41830;BME280;38614;43.472;23.936;2023-05-23T05:20:25;100015.78;;;17.30;100.00
41830;BME280;38614;43.472;23.936;2023-05-23T05:23:15;100015.22;;;17.57;100.00
41830;BME280;38614;43.472;23.936;2023-05-23T05:26:04;100012.03;;;17.55;100.00
41830;BME280;38614;43.472;23.936;2023-05-23T05:28:52;100034.25;;;17.80;100.00
41830;BME280;38614;43.472;23.936;2023-05-23T05:31:40;100045.97;;;18.12;100.00
41830;BME280;38614;43.472;23.936;2023-05-23T05:34:36;100032.97;;;18.33;100.00
41830;BME280;38614;43.472;23.936;2023-05-23T05:37:25;100048.16;;;18.35;100.00
41830;BME280;38614;43.472;23.936;2023-05-23T05:40:18;100055.88;;;18.65;100.00
41830;BME280;38614;43.472;23.936;2023-05-23T05:43:05;100049.25;;;18.86;100.00
41830;BME280;38614;43.472;23.936;2023-05-23T05:45:54;100013.06;;;18.68;100.00
41830;BME280;38614;43.472;23.936;2023-05-23T05:48:44;100019.59;;;18.89;100.00
41830;BME280;38614;43.472;23.936;2023-05-23T05:51:35;100024.69;;;18.97;100.00
41830;BME280;38614;43.472;23.936;2023-05-23T05:54:29;100052.75;;;19.24;100.00
41830;BME280;38614;43.472;23.936;2023-05-23T05:57:20;100020.78;;;19.22;100.00
41830;BME280;38614;43.472;23.936;2023-05-23T06:00:10;100033.94;;;19.55;100.00
41830;BME280;38614;43.472;23.936;2023-05-23T06:03:06;100050.44;;;19.77;100.00
41830;BME280;38614;43.472;23.936;2023-05-23T06:06:11;100040.25;;;20.13;100.00
41830;BME280;38614;43.472;23.936;2023-05-23T06:08:59;100028.47;;;19.99;100.00
41830;BME280;38614;43.472;23.936;2023-05-23T06:11:51;100041.34;;;20.19;100.00
41830;BME280;38614;43.472;23.936;2023-05-23T06:14:40;100011.44;;;20.33;100.00
41830;BME280;38614;43.472;23.936;2023-05-23T06:17:28;100035.06;;;20.59;100.00
41830;BME280;38614;43.472;23.936;2023-05-23T06:20:19;100039.94;;;20.55;100.00
41830;BME280;38614;43.472;23.936;2023-05-23T06:23:10;100038.38;;;20.73;100.00
41830;BME280;38614;43.472;23.936;2023-05-23T06:26:00;99994.22;;;20.94;100.00
41830;BME280;38614;43.472;23.936;2023-05-23T06:28:50;100024.78;;;21.31;100.00
41830;BME280;38614;43.472;23.936;2023-05-23T06:31:56;100040.06;;;21.47;100.00
41830;BME280;38614;43.472;23.936;2023-05-23T06:34:44;100037.44;;;21.56;100.00
41830;BME280;38614;43.472;23.936;2023-05-23T06:37:32;100037.59;;;21.49;100.00
41830;BME280;38614;43.472;23.936;2023-05-23T06:40:23;100034.28;;;21.54;100.00
41830;BME280;38614;43.472;23.936;2023-05-23T06:43:11;100010.91;;;21.57;100.00
41830;BME280;38614;43.472;23.936;2023-05-23T06:46:27;99971.72;;;21.99;100.00
41830;BME280;38614;43.472;23.936;2023-05-23T06:49:17;100016.84;;;22.28;100.00
41830;BME280;38614;43.472;23.936;2023-05-23T06:52:06;100043.50;;;22.52;100.00
41830;BME280;38614;43.472;23.936;2023-05-23T06:54:54;100027.41;;;22.07;100.00
41830;BME280;38614;43.472;23.936;2023-05-23T06:57:43;100013.00;;;22.51;100.00
41830;BME280;38614;43.472;23.936;2023-05-23T07:00:34;100012.28;;;22.63;100.00
41830;BME280;38614;43.472;23.936;2023-05-23T07:03:45;99998.56;;;22.48;100.00
41830;BME280;38614;43.472;23.936;2023-05-23T07:06:36;100027.97;;;23.06;100.00
41830;BME280;38614;43.472;23.936;2023-05-23T07:09:29;100023.38;;;23.12;100.00
41830;BME280;38614;43.472;23.936;2023-05-23T07:12:28;99971.59;;;23.06;100.00
41830;BME280;38614;43.472;23.936;2023-05-23T07:15:21;99995.41;;;23.04;100.00
41830;BME280;38614;43.472;23.936;2023-05-23T07:18:19;100018.53;;;23.12;100.00
41830;BME280;38614;43.472;23.936;2023-05-23T07:21:07;100014.72;;;23.44;100.00
41830;BME280;38614;43.472;23.936;2023-05-23T07:23:56;100005.25;;;23.38;100.00
41830;BME280;38614;43.472;23.936;2023-05-23T07:26:51;100018.47;;;23.92;100.00
41830;BME280;38614;43.472;23.936;2023-05-23T07:29:45;100015.28;;;24.03;100.00
41830;BME280;38614;43.472;23.936;2023-05-23T07:32:34;100015.25;;;24.15;100.00
41830;BME280;38614;43.472;23.936;2023-05-23T07:35:32;100015.84;;;24.10;100.00
41830;BME280;38614;43.472;23.936;2023-05-23T07:38:22;99972.66;;;23.75;100.00
41830;BME280;38614;43.472;23.936;2023-05-23T07:41:20;99947.84;;;23.70;100.00
41830;BME280;38614;43.472;23.936;2023-05-23T07:44:08;100005.03;;;23.96;100.00
41830;BME280;38614;43.472;23.936;2023-05-23T07:47:03;99984.84;;;23.85;100.00
41830;BME280;38614;43.472;23.936;2023-05-23T07:49:54;100008.69;;;24.31;100.00
41830;BME280;38614;43.472;23.936;2023-05-23T07:52:46;99969.44;;;24.46;100.00
41830;BME280;38614;43.472;23.936;2023-05-23T07:55:37;100000.84;;;24.48;100.00
41830;BME280;38614;43.472;23.936;2023-05-23T07:58:25;100002.56;;;24.67;100.00
41830;BME280;38614;43.472;23.936;2023-05-23T08:01:17;99965.56;;;24.74;100.00
41830;BME280;38614;43.472;23.936;2023-05-23T08:04:20;99993.00;;;25.49;100.00
41830;BME280;38614;43.472;23.936;2023-05-23T08:07:15;100006.22;;;25.83;100.00
41830;BME280;38614;43.472;23.936;2023-05-23T08:10:22;99962.34;;;25.47;100.00
41830;BME280;38614;43.472;23.936;2023-05-23T08:13:37;99930.56;;;25.34;100.00
41830;BME280;38614;43.472;23.936;2023-05-23T08:17:11;99961.09;;;25.48;100.00
41830;BME280;38614;43.472;23.936;2023-05-23T08:20:20;99942.13;;;25.67;100.00
41830;BME280;38614;43.472;23.936;2023-05-23T08:23:11;99962.97;;;25.11;100.00
41830;BME280;38614;43.472;23.936;2023-05-23T08:26:04;99996.47;;;25.44;100.00
41830;BME280;38614;43.472;23.936;2023-05-23T08:28:56;99921.66;;;25.05;100.00
41830;BME280;38614;43.472;23.936;2023-05-23T08:31:48;99986.38;;;25.74;100.00
41830;BME280;38614;43.472;23.936;2023-05-23T08:34:43;99960.03;;;26.23;100.00
41830;BME280;38614;43.472;23.936;2023-05-23T08:37:36;99910.78;;;26.11;100.00
41830;BME280;38614;43.472;23.936;2023-05-23T08:40:29;99936.28;;;26.29;100.00
41830;BME280;38614;43.472;23.936;2023-05-23T08:43:37;99953.59;;;26.31;100.00
41830;BME280;38614;43.472;23.936;2023-05-23T08:46:45;99939.31;;;26.44;100.00
41830;BME280;38614;43.472;23.936;2023-05-23T08:49:58;99961.63;;;26.60;96.28
41830;BME280;38614;43.472;23.936;2023-05-23T08:53:15;99925.56;;;26.52;93.72
41830;BME280;38614;43.472;23.936;2023-05-23T08:56:21;99962.22;;;26.92;94.01
41830;BME280;38614;43.472;23.936;2023-05-23T08:59:25;99971.75;;;27.22;93.21
41830;BME280;38614;43.472;23.936;2023-05-23T09:02:14;99980.06;;;26.56;86.22
41830;BME280;38614;43.472;23.936;2023-05-23T09:05:05;99961.53;;;27.15;94.08
41830;BME280;38614;43.472;23.936;2023-05-23T09:07:54;99971.13;;;27.69;88.04
41830;BME280;38614;43.472;23.936;2023-05-23T09:10:43;99980.34;;;27.46;91.59
41830;BME280;38614;43.472;23.936;2023-05-23T09:13:34;99950.38;;;28.26;88.18
41830;BME280;38614;43.472;23.936;2023-05-23T09:16:32;99957.34;;;28.25;81.82
41830;BME280;38614;43.472;23.936;2023-05-23T09:19:26;99954.09;;;27.60;81.43
41830;BME280;38614;43.472;23.936;2023-05-23T09:22:32;99959.84;;;27.84;73.77
41830;BME280;38614;43.472;23.936;2023-05-23T09:25:45;99953.06;;;27.81;76.16
41830;BME280;38614;43.472;23.936;2023-05-23T09:28:37;99945.09;;;27.62;73.59
41830;BME280;38614;43.472;23.936;2023-05-23T09:31:25;99961.66;;;27.96;76.04
41830;BME280;38614;43.472;23.936;2023-05-23T09:34:16;99958.59;;;28.24;73.00
41830;BME280;38614;43.472;23.936;2023-05-23T09:37:04;99963.91;;;28.55;68.29
41830;BME280;38614;43.472;23.936;2023-05-23T09:39:52;99961.56;;;28.83;72.92
41830;BME280;38614;43.472;23.936;2023-05-23T09:42:44;99936.81;;;28.30;70.35
41830;BME280;38614;43.472;23.936;2023-05-23T09:45:32;99962.91;;;28.43;71.50
41830;BME280;38614;43.472;23.936;2023-05-23T09:48:27;99945.44;;;28.89;75.80
41830;BME280;38614;43.472;23.936;2023-05-23T09:51:22;99953.88;;;28.98;68.16
41830;BME280;38614;43.472;23.936;2023-05-23T09:54:10;99958.28;;;29.14;67.90
41830;BME280;38614;43.472;23.936;2023-05-23T09:57:09;99939.25;;;28.90;73.22
41830;BME280;38614;43.472;23.936;2023-05-23T09:59:58;99949.06;;;28.89;66.78
41830;BME280;38614;43.472;23.936;2023-05-23T10:05:54;99912.53;;;28.20;69.14
41830;BME280;38614;43.472;23.936;2023-05-23T10:08:45;99932.66;;;27.26;70.31
41830;BME280;38614;43.472;23.936;2023-05-23T10:15:04;99946.19;;;26.61;70.95
41830;BME280;38614;43.472;23.936;2023-05-23T10:18:17;99939.91;;;26.39;71.40
41830;BME280;38614;43.472;23.936;2023-05-23T10:21:11;99952.66;;;26.16;70.98
41830;BME280;38614;43.472;23.936;2023-05-23T10:23:59;99947.38;;;25.78;73.23
41830;BME280;38614;43.472;23.936;2023-05-23T10:26:47;99938.91;;;25.87;74.21
41830;BME280;38614;43.472;23.936;2023-05-23T10:29:36;99909.38;;;26.06;75.56
41830;BME280;38614;43.472;23.936;2023-05-23T10:32:28;99920.84;;;26.30;78.27
41830;BME280;38614;43.472;23.936;2023-05-23T10:35:41;99931.88;;;26.19;72.04
41830;BME280;38614;43.472;23.936;2023-05-23T10:38:53;99914.00;;;25.64;72.41
41830;BME280;38614;43.472;23.936;2023-05-23T10:41:51;99896.44;;;25.78;69.52
41830;BME280;38614;43.472;23.936;2023-05-23T10:44:42;99934.53;;;26.68;68.91
41830;BME280;38614;43.472;23.936;2023-05-23T10:47:30;99903.50;;;26.74;64.04
41830;BME280;38614;43.472;23.936;2023-05-23T10:50:31;99928.72;;;26.26;63.69
41830;BME280;38614;43.472;23.936;2023-05-23T10:53:22;99915.66;;;26.20;65.73
41830;BME280;38614;43.472;23.936;2023-05-23T10:56:20;99917.75;;;26.98;66.55
41830;BME280;38614;43.472;23.936;2023-05-23T10:59:19;99922.88;;;27.93;72.59
41830;BME280;38614;43.472;23.936;2023-05-23T11:02:15;99896.41;;;27.87;63.34
41830;BME280;38614;43.472;23.936;2023-05-23T11:05:23;99892.06;;;28.69;68.85
41830;BME280;38614;43.472;23.936;2023-05-23T11:08:12;99911.97;;;29.13;59.98
41830;BME280;38614;43.472;23.936;2023-05-23T11:11:02;99902.56;;;28.24;63.10
41830;BME280;38614;43.472;23.936;2023-05-23T11:13:56;99910.75;;;28.07;56.38
41830;BME280;38614;43.472;23.936;2023-05-23T11:16:46;99887.25;;;28.07;62.21
41830;BME280;38614;43.472;23.936;2023-05-23T11:19:35;99883.75;;;28.27;61.32
41830;BME280;38614;43.472;23.936;2023-05-23T11:22:27;99901.69;;;29.01;57.06
41830;BME280;38614;43.472;23.936;2023-05-23T11:25:16;99903.41;;;28.54;55.47
41830;BME280;38614;43.472;23.936;2023-05-23T11:28:06;99904.09;;;28.64;56.78
41830;BME280;38614;43.472;23.936;2023-05-23T11:33:44;99891.50;;;27.88;57.69
41830;BME280;38614;43.472;23.936;2023-05-23T11:36:33;99886.47;;;28.60;58.91
41830;BME280;38614;43.472;23.936;2023-05-23T11:39:21;99894.66;;;27.66;58.01
41830;BME280;38614;43.472;23.936;2023-05-23T11:42:09;99876.97;;;26.95;60.73
41830;BME280;38614;43.472;23.936;2023-05-23T11:44:58;99843.09;;;27.34;60.83
41830;BME280;38614;43.472;23.936;2023-05-23T11:47:45;99833.38;;;26.93;63.99
41830;BME280;38614;43.472;23.936;2023-05-23T11:50:45;99873.66;;;27.06;60.86
41830;BME280;38614;43.472;23.936;2023-05-23T11:53:36;99885.75;;;26.55;60.98
41830;BME280;38614;43.472;23.936;2023-05-23T11:56:30;99853.19;;;26.14;62.76
41830;BME280;38614;43.472;23.936;2023-05-23T11:59:18;99866.53;;;26.59;65.24
41830;BME280;38614;43.472;23.936;2023-05-23T12:02:07;99861.38;;;27.33;69.74
41830;BME280;38614;43.472;23.936;2023-05-23T12:04:55;99791.53;;;27.36;65.47
41830;BME280;38614;43.472;23.936;2023-05-23T12:07:45;99856.72;;;27.78;63.25
41830;BME280;38614;43.472;23.936;2023-05-23T12:10:38;99860.69;;;28.49;62.52
41830;BME280;38614;43.472;23.936;2023-05-23T12:13:40;99848.72;;;28.45;61.10
41830;BME280;38614;43.472;23.936;2023-05-23T12:16:28;99829.91;;;28.77;63.31
41830;BME280;38614;43.472;23.936;2023-05-23T12:19:16;99832.84;;;28.53;57.16
41830;BME280;38614;43.472;23.936;2023-05-23T12:22:05;99841.00;;;28.60;54.00
41830;BME280;38614;43.472;23.936;2023-05-23T12:24:59;99844.19;;;28.23;58.44
41830;BME280;38614;43.472;23.936;2023-05-23T12:27:47;99845.44;;;27.69;59.90
41830;BME280;38614;43.472;23.936;2023-05-23T12:30:42;99840.44;;;27.54;62.49
41830;BME280;38614;43.472;23.936;2023-05-23T12:33:30;99844.88;;;27.79;59.20
41830;BME280;38614;43.472;23.936;2023-05-23T12:36:23;99826.22;;;27.07;58.11
41830;BME280;38614;43.472;23.936;2023-05-23T12:39:11;99815.00;;;26.70;60.27
41830;BME280;38614;43.472;23.936;2023-05-23T12:42:07;99834.50;;;26.86;58.28
41830;BME280;38614;43.472;23.936;2023-05-23T12:44:56;99791.19;;;27.43;57.67
41830;BME280;38614;43.472;23.936;2023-05-23T12:47:44;99802.53;;;28.05;58.57
41830;BME280;38614;43.472;23.936;2023-05-23T12:50:32;99801.28;;;28.21;57.76
41830;BME280;38614;43.472;23.936;2023-05-23T12:53:20;99782.84;;;28.17;59.07
41830;BME280;38614;43.472;23.936;2023-05-23T12:56:11;99808.13;;;28.74;60.04
41830;BME280;38614;43.472;23.936;2023-05-23T12:58:59;99802.28;;;28.48;54.75
41830;BME280;38614;43.472;23.936;2023-05-23T13:01:48;99781.03;;;28.43;52.71
41830;BME280;38614;43.472;23.936;2023-05-23T13:04:38;99763.56;;;28.21;56.74
41830;BME280;38614;43.472;23.936;2023-05-23T13:07:26;99767.50;;;27.70;52.25
41830;BME280;38614;43.472;23.936;2023-05-23T13:10:14;99715.66;;;27.84;55.16
41830;BME280;38614;43.472;23.936;2023-05-23T13:13:01;99784.63;;;28.44;54.71
41830;BME280;38614;43.472;23.936;2023-05-23T13:15:50;99726.34;;;28.48;53.30
41830;BME280;38614;43.472;23.936;2023-05-23T13:18:38;99749.06;;;28.83;52.29
41830;BME280;38614;43.472;23.936;2023-05-23T13:21:26;99768.22;;;28.98;53.26
41830;BME280;38614;43.472;23.936;2023-05-23T13:24:14;99775.78;;;28.86;51.18
41830;BME280;38614;43.472;23.936;2023-05-23T13:27:03;99754.63;;;29.07;51.95
41830;BME280;38614;43.472;23.936;2023-05-23T13:29:51;99772.78;;;28.45;51.71
41830;BME280;38614;43.472;23.936;2023-05-23T13:32:39;99734.97;;;27.95;49.64
41830;BME280;38614;43.472;23.936;2023-05-23T13:35:30;99746.19;;;27.74;52.75
41830;BME280;38614;43.472;23.936;2023-05-23T13:38:18;99747.56;;;27.79;52.31
41830;BME280;38614;43.472;23.936;2023-05-23T13:41:06;99766.44;;;27.67;52.96
41830;BME280;38614;43.472;23.936;2023-05-23T13:43:55;99749.53;;;27.25;53.51
41830;BME280;38614;43.472;23.936;2023-05-23T13:46:43;99758.13;;;27.16;56.75
41830;BME280;38614;43.472;23.936;2023-05-23T13:49:31;99742.38;;;27.53;50.87
41830;BME280;38614;43.472;23.936;2023-05-23T13:52:18;99752.88;;;27.86;53.73
41830;BME280;38614;43.472;23.936;2023-05-23T13:55:06;99760.03;;;28.11;51.17
41830;BME280;38614;43.472;23.936;2023-05-23T13:57:54;99755.44;;;28.14;51.47
41830;BME280;38614;43.472;23.936;2023-05-23T14:00:42;99743.47;;;27.95;52.66
41830;BME280;38614;43.472;23.936;2023-05-23T14:03:32;99766.38;;;27.91;51.27
41830;BME280;38614;43.472;23.936;2023-05-23T14:06:20;99753.69;;;28.01;53.44
41830;BME280;38614;43.472;23.936;2023-05-23T14:09:08;99766.50;;;28.11;51.65
41830;BME280;38614;43.472;23.936;2023-05-23T14:11:56;99743.78;;;28.41;50.00
41830;BME280;38614;43.472;23.936;2023-05-23T14:14:44;99747.56;;;28.67;51.95
41830;BME280;38614;43.472;23.936;2023-05-23T14:17:32;99745.78;;;28.70;51.76
41830;BME280;38614;43.472;23.936;2023-05-23T14:20:21;99752.59;;;28.58;50.45
41830;BME280;38614;43.472;23.936;2023-05-23T14:23:09;99746.91;;;28.28;47.78
41830;BME280;38614;43.472;23.936;2023-05-23T14:25:57;99728.66;;;27.37;49.04
41830;BME280;38614;43.472;23.936;2023-05-23T14:28:45;99753.22;;;27.40;51.33
41830;BME280;38614;43.472;23.936;2023-05-23T14:31:32;99719.69;;;27.15;49.92
41830;BME280;38614;43.472;23.936;2023-05-23T14:34:20;99721.88;;;27.35;48.83
41830;BME280;38614;43.472;23.936;2023-05-23T14:37:08;99744.31;;;27.71;49.38
41830;BME280;38614;43.472;23.936;2023-05-23T14:39:56;99753.34;;;27.99;49.86
41830;BME280;38614;43.472;23.936;2023-05-23T14:42:44;99750.25;;;28.12;53.50
41830;BME280;38614;43.472;23.936;2023-05-23T14:45:32;99729.16;;;27.89;50.78
41830;BME280;38614;43.472;23.936;2023-05-23T14:48:20;99748.69;;;28.11;48.98
41830;BME280;38614;43.472;23.936;2023-05-23T14:51:08;99750.72;;;27.96;47.77
41830;BME280;38614;43.472;23.936;2023-05-23T14:53:59;99760.59;;;28.00;47.76
41830;BME280;38614;43.472;23.936;2023-05-23T14:56:46;99753.69;;;28.01;48.08
41830;BME280;38614;43.472;23.936;2023-05-23T14:59:38;99730.31;;;27.68;50.36
41830;BME280;38614;43.472;23.936;2023-05-23T15:02:26;99755.91;;;27.97;49.30